Portada
METAR-TAF:

METAR-TAF

Aeroports :

Sint Eustatius, Antilles Neerlandeses

latitud: 17-29N, longitud: 062-59W, altitud: 38 m

Observació

L'informe es va fer fa 1 hora i 1 minuts, a les 12:55 UTC
Vent 6 kt del Est, variant entre Nord-Est i Sud/Sud-Est
Temperatura 30°C
Humitat 66%
Pressió 1011 hPa

METAR: TNCE 181255Z AUTO 09006KT 040V160 //// // ///////// 30/23 Q1011 RE//

Hora: 09:56 (13:56 UTC)


TAF: manca

Observacions i pronòstics meteorològics de més de 4000 aeroports (METAR i TAF).

Les estacions disponibles són els punts grocs i vermells al mapa.

Posi el ratolí al punt desitjat per veure el nom de l'estació.

Feu clic per veure les observacions i els pronòstics meteorològics.

Per canviar el mapa: feu clic els botons verds amb una creu de color negre per apropar; al botó verd amb un guió per allunyar la imatge; o en les fletxes verdes per a mapes adjacents.


METAR-TAF: